Time;durP1;ratioP1;P1;durP2;ratioP2;P2;SDS_P1;SDS_P2;PMS_P1;PMS_P2;Temp;Humidity;BMP_temperature;BMP_pressure;BME280_temperature;BME280_humidity;BME280_pressure;Samples;Min_cycle;Max_cycle;Signal;HPM_P1;HPM_P2
2023/02/11 00:02:05;;;;;;;49.60;19.30;;;3.50;96.30;;;;;;5047545;28;20065;-66
2023/02/11 00:04:31;;;;;;;46.53;20.58;;;3.60;96.40;;;;;;5048867;28;20067;-66
2023/02/11 00:06:57;;;;;;;48.17;20.60;;;3.80;95.90;;;;;;5048684;28;20074;-66
2023/02/11 00:09:22;;;;;;;47.88;20.30;;;3.90;95.50;;;;;;5050061;28;20029;-66
2023/02/11 00:11:49;;;;;;;42.85;18.45;;;3.90;95.30;;;;;;5045207;28;20028;-66
2023/02/11 00:14:14;;;;;;;48.15;20.80;;;3.90;95.50;;;;;;5047795;28;20353;-66
2023/02/11 00:16:40;;;;;;;45.95;19.55;;;3.90;95.60;;;;;;5047010;28;20033;-66
2023/02/11 00:19:06;;;;;;;51.65;20.88;;;4.00;95.40;;;;;;5046179;28;20437;-65
2023/02/11 00:21:33;;;;;;;45.97;19.45;;;3.90;95.30;;;;;;5053478;28;20766;-67
2023/02/11 00:24:01;;;;;;;43.67;19.17;;;4.00;95.50;;;;;;5049212;28;20032;-67
2023/02/11 00:26:30;;;;;;;42.10;19.55;;;4.10;95.30;;;;;;5051097;28;20028;-66
2023/02/11 00:28:56;;;;;;;45.38;18.60;;;4.30;95.00;;;;;;5054080;28;20036;-66
2023/02/11 00:31:23;;;;;;;41.00;19.27;;;4.50;94.70;;;;;;5052684;28;20028;-66
2023/02/11 00:33:49;;;;;;;45.78;18.83;;;4.60;94.40;;;;;;5027728;28;20517;-66
2023/02/11 00:36:18;;;;;;;50.13;19.05;;;4.60;94.10;;;;;;5046806;28;20025;-67
2023/02/11 00:38:46;;;;;;;35.97;17.92;;;4.50;94.40;;;;;;5055168;28;20067;-66
2023/02/11 00:41:13;;;;;;;46.00;18.75;;;4.50;94.50;;;;;;5031017;28;20041;-65
2023/02/11 00:43:39;;;;;;;34.90;17.98;;;4.60;94.00;;;;;;5030564;28;20035;-65
2023/02/11 00:46:06;;;;;;;46.22;18.73;;;4.70;94.10;;;;;;5054892;28;20043;-66
2023/02/11 00:48:33;;;;;;;43.78;18.40;;;4.80;93.90;;;;;;5031731;28;20032;-66
2023/02/11 00:51:00;;;;;;;43.20;19.83;;;4.90;93.70;;;;;;5029577;28;20481;-66
2023/02/11 00:53:26;;;;;;;37.40;17.48;;;4.90;93.70;;;;;;5034165;28;20024;-66
2023/02/11 00:55:52;;;;;;;43.78;19.15;;;4.90;93.60;;;;;;5052028;28;20028;-66
2023/02/11 00:58:18;;;;;;;37.95;17.58;;;5.00;93.70;;;;;;5049511;28;20072;-67
2023/02/11 01:00:43;;;;;;;41.90;17.65;;;5.10;93.50;;;;;;5048062;28;20028;-66
2023/02/11 01:03:09;;;;;;;41.75;18.08;;;5.20;93.40;;;;;;5048896;28;20041;-66
2023/02/11 01:05:35;;;;;;;41.85;17.27;;;5.30;93.20;;;;;;5048443;28;20027;-67
2023/02/11 01:08:01;;;;;;;41.53;18.08;;;5.30;93.20;;;;;;5047654;28;20090;-66
2023/02/11 01:10:28;;;;;;;40.65;18.00;;;5.30;93.20;;;;;;5032411;28;20093;-66
2023/02/11 01:12:54;;;;;;;42.50;18.90;;;5.30;93.10;;;;;;5046524;28;20020;-66
2023/02/11 01:15:20;;;;;;;41.85;18.45;;;5.20;93.20;;;;;;5044632;28;20102;-67
2023/02/11 01:17:46;;;;;;;35.38;16.70;;;5.20;93.50;;;;;;5054828;28;20059;-67
2023/02/11 01:20:19;;;;;;;41.45;18.60;;;5.30;93.30;;;;;;5047544;28;20041;-67
2023/02/11 01:22:45;;;;;;;38.45;17.05;;;5.30;93.60;;;;;;5026898;28;20106;-67
2023/02/11 01:25:11;;;;;;;37.45;17.75;;;5.40;93.10;;;;;;5044911;28;20040;-66
2023/02/11 01:27:37;;;;;;;43.33;18.65;;;5.50;93.10;;;;;;5049432;28;20028;-66
2023/02/11 01:30:05;;;;;;;39.78;18.98;;;5.50;92.90;;;;;;5046664;28;20017;-66
2023/02/11 01:32:30;;;;;;;45.80;18.20;;;5.60;92.70;;;;;;5047493;28;20023;-66
2023/02/11 01:34:56;;;;;;;40.95;19.17;;;5.60;92.50;;;;;;5046379;28;20033;-67
2023/02/11 01:37:22;;;;;;;39.70;18.15;;;5.50;92.80;;;;;;5013130;28;20077;-66
2023/02/11 01:39:48;;;;;;;34.85;17.65;;;5.50;93.00;;;;;;5047595;28;20057;-66
2023/02/11 01:42:19;;;;;;;42.67;19.33;;;5.50;92.80;;;;;;5038385;28;20037;-66
2023/02/11 01:44:50;;;;;;;40.42;20.52;;;5.60;92.90;;;;;;5027467;28;20114;-66
2023/02/11 01:47:16;;;;;;;40.35;17.60;;;5.60;92.80;;;;;;5049552;28;20037;-67
2023/02/11 01:49:48;;;;;;;42.30;19.35;;;5.70;92.90;;;;;;5052500;28;20213;-67
2023/02/11 01:52:21;;;;;;;39.30;17.58;;;5.80;92.70;;;;;;5050709;28;20031;-66
2023/02/11 01:57:42;;;;;;;44.55;19.25;;;5.70;93.00;;;;;;5035045;28;20028;-66
2023/02/11 02:00:20;;;;;;;44.20;19.70;;;5.60;93.30;;;;;;5024315;28;20041;-66
2023/02/11 02:02:53;;;;;;;42.53;19.20;;;5.60;93.40;;;;;;5044550;28;20665;-66
2023/02/11 02:05:26;;;;;;;42.80;19.17;;;5.60;93.60;;;;;;5030183;28;20032;-66
2023/02/11 02:07:54;;;;;;;48.05;20.10;;;5.60;93.50;;;;;;5042704;28;20033;-66
2023/02/11 02:10:25;;;;;;;42.20;19.92;;;5.70;93.60;;;;;;5043315;28;20032;-67
2023/02/11 02:12:51;;;;;;;46.30;19.92;;;5.50;93.90;;;;;;5050126;28;20036;-67
2023/02/11 02:15:25;;;;;;;44.33;19.77;;;5.40;94.50;;;;;;5048832;28;20029;-67
2023/02/11 02:18:20;;;;;;;38.50;19.25;;;5.40;94.60;;;;;;5017256;28;20788;-67
2023/02/11 02:21:07;;;;;;;40.05;18.13;;;5.40;94.50;;;;;;5014329;28;20048;-67
2023/02/11 02:23:51;;;;;;;44.40;20.38;;;5.50;94.50;;;;;;5051591;28;20044;-65
2023/02/11 02:26:43;;;;;;;44.55;21.25;;;5.60;94.30;;;;;;5051926;28;20025;-66
2023/02/11 02:29:12;;;;;;;43.60;19.67;;;5.60;94.40;;;;;;5051235;28;20045;-66
2023/02/11 02:31:50;;;;;;;46.60;21.05;;;5.70;94.10;;;;;;5051015;28;20033;-66
2023/02/11 02:34:28;;;;;;;41.42;19.90;;;5.70;94.50;;;;;;5056330;28;20048;-67
2023/02/11 02:37:10;;;;;;;40.90;20.15;;;5.70;94.10;;;;;;5057591;28;20024;-67
2023/02/11 02:39:36;;;;;;;48.55;20.13;;;5.80;94.00;;;;;;5053403;28;20124;-67
2023/02/11 02:42:03;;;;;;;43.10;20.08;;;5.90;93.70;;;;;;5049837;28;20036;-65
2023/02/11 02:44:30;;;;;;;41.05;18.75;;;6.00;93.60;;;;;;5028498;28;20032;-66
2023/02/11 02:46:56;;;;;;;42.63;19.75;;;6.10;93.30;;;;;;5045621;28;20074;-66
2023/02/11 02:49:22;;;;;;;46.20;21.23;;;6.10;93.30;;;;;;5048984;28;20036;-66
2023/02/11 02:52:14;;;;;;;43.90;20.42;;;6.20;93.20;;;;;;5049685;28;20025;-66
2023/02/11 02:55:06;;;;;;;42.42;20.52;;;6.20;93.20;;;;;;5049623;28;20032;-66
2023/02/11 02:57:44;;;;;;;43.63;19.35;;;6.10;93.50;;;;;;5048146;28;20064;-68
2023/02/11 03:00:31;;;;;;;47.05;21.73;;;6.00;93.40;;;;;;5047997;28;20033;-68
2023/02/11 03:03:14;;;;;;;44.95;19.17;;;6.10;93.60;;;;;;5040608;28;20139;-67
2023/02/11 03:06:04;;;;;;;47.35;23.25;;;6.10;93.50;;;;;;5047296;28;20025;-67
2023/02/11 03:08:58;;;;;;;50.78;20.42;;;6.20;93.50;;;;;;5051567;28;20025;-67
2023/02/11 03:11:26;;;;;;;47.20;20.80;;;6.10;93.70;;;;;;5049011;28;20170;-66
2023/02/11 03:13:53;;;;;;;53.70;23.15;;;6.00;94.00;;;;;;5051399;28;20045;-66
2023/02/11 03:16:25;;;;;;;46.75;20.63;;;6.10;94.10;;;;;;5047962;28;20066;-67
2023/02/11 03:19:10;;;;;;;50.97;22.05;;;6.10;93.90;;;;;;5048587;28;20033;-66
2023/02/11 03:34:39;;;;;;;49.75;21.17;;;6.20;94.30;;;;;;4975664;28;20065;-64
2023/02/11 03:37:13;;;;;;;42.58;20.73;;;6.20;94.30;;;;;;4987283;28;20042;-64
2023/02/11 03:39:55;;;;;;;45.88;22.70;;;6.20;94.30;;;;;;4990954;28;20026;-64
2023/02/11 03:42:25;;;;;;;48.05;23.45;;;6.30;94.40;;;;;;4991452;28;20042;-64
2023/02/11 03:44:55;;;;;;;45.65;21.45;;;6.20;94.70;;;;;;4990010;28;20124;-64
2023/02/11 03:47:24;;;;;;;58.08;24.55;;;6.10;94.70;;;;;;4984770;28;20049;-64
2023/02/11 03:49:54;;;;;;;57.47;24.92;;;6.20;94.70;;;;;;4991081;28;20053;-64
2023/02/11 03:52:22;;;;;;;51.25;23.50;;;6.30;94.50;;;;;;4974246;28;20058;-64
2023/02/11 03:54:52;;;;;;;45.58;23.92;;;6.30;94.50;;;;;;4993763;28;20029;-64
2023/02/11 03:57:18;;;;;;;50.88;22.50;;;6.30;94.40;;;;;;4992909;28;20441;-64
2023/02/11 03:59:52;;;;;;;51.40;25.05;;;6.30;94.30;;;;;;4989276;28;20038;-64
2023/02/11 04:02:18;;;;;;;48.85;23.67;;;6.40;94.20;;;;;;4985488;28;20113;-64
2023/02/11 04:04:45;;;;;;;46.58;22.08;;;6.40;94.30;;;;;;4988453;28;20034;-64
2023/02/11 04:07:11;;;;;;;52.50;25.58;;;6.40;94.40;;;;;;4993688;28;20039;-63
2023/02/11 04:09:37;;;;;;;59.53;27.95;;;6.40;94.40;;;;;;4988807;28;20140;-64
2023/02/11 04:12:03;;;;;;;52.67;24.98;;;6.40;94.50;;;;;;4996593;23;20030;-66
2023/02/11 04:14:29;;;;;;;108.90;39.38;;;6.50;94.50;;;;;;5027877;28;20041;-65
2023/02/11 04:16:55;;;;;;;72.38;30.17;;;6.30;94.50;;;;;;5012239;28;20048;-65
2023/02/11 04:19:20;;;;;;;71.70;29.85;;;6.30;95.00;;;;;;5011776;28;20051;-65
2023/02/11 04:21:46;;;;;;;58.70;27.30;;;6.30;95.10;;;;;;5013681;28;20053;-65
2023/02/11 04:24:12;;;;;;;53.33;25.13;;;6.30;95.10;;;;;;5007971;28;20042;-65
2023/02/11 04:26:38;;;;;;;46.08;22.50;;;6.30;94.90;;;;;;5005822;28;20088;-65
2023/02/11 04:29:03;;;;;;;46.20;22.60;;;6.30;94.90;;;;;;5008649;28;20037;-65
2023/02/11 04:31:29;;;;;;;59.13;26.00;;;6.40;94.90;;;;;;5016181;28;20030;-65
2023/02/11 04:33:55;;;;;;;64.10;28.48;;;6.50;94.80;;;;;;5010092;28;20792;-65
2023/02/11 04:36:21;;;;;;;55.58;25.98;;;6.50;94.60;;;;;;5015888;28;20678;-65
2023/02/11 04:38:47;;;;;;;58.17;26.70;;;6.50;94.60;;;;;;5011346;28;20140;-65
2023/02/11 04:41:13;;;;;;;60.33;26.42;;;6.60;94.50;;;;;;5010012;28;20029;-65
2023/02/11 04:43:38;;;;;;;56.70;27.17;;;6.60;94.40;;;;;;5010807;28;20750;-65
2023/02/11 04:46:04;;;;;;;59.30;27.90;;;6.50;94.70;;;;;;5012020;28;20052;-65
2023/02/11 04:48:30;;;;;;;54.60;27.20;;;6.40;95.30;;;;;;5014214;28;20030;-65
2023/02/11 04:50:56;;;;;;;49.47;24.77;;;6.40;95.30;;;;;;5004537;28;20029;-65
2023/02/11 04:53:21;;;;;;;50.72;24.88;;;6.50;95.20;;;;;;5009599;28;20781;-65
2023/02/11 04:55:49;;;;;;;57.72;25.88;;;6.40;95.20;;;;;;5016255;28;20083;-65
2023/02/11 04:58:15;;;;;;;55.05;24.70;;;6.30;95.40;;;;;;5015425;28;20473;-65
2023/02/11 05:00:41;;;;;;;56.58;25.25;;;6.30;95.70;;;;;;5014591;28;20037;-65
2023/02/11 05:03:07;;;;;;;51.45;24.63;;;6.30;95.80;;;;;;5008236;28;20916;-65
2023/02/11 05:05:32;;;;;;;57.95;25.42;;;6.30;96.00;;;;;;5007734;28;20041;-65
2023/02/11 05:07:58;;;;;;;54.65;24.13;;;6.20;96.30;;;;;;5013347;28;20486;-65
2023/02/11 05:10:24;;;;;;;56.72;26.20;;;6.20;96.10;;;;;;5013590;28;20501;-65
2023/02/11 05:12:50;;;;;;;62.50;26.45;;;6.30;96.30;;;;;;5008813;28;20945;-65
2023/02/11 05:15:15;;;;;;;58.22;27.38;;;6.30;96.20;;;;;;5009911;28;20811;-65
2023/02/11 05:17:41;;;;;;;61.33;25.77;;;6.30;96.70;;;;;;5012999;28;20053;-65
2023/02/11 05:20:07;;;;;;;54.45;25.95;;;6.30;96.60;;;;;;4993155;28;20437;-65
2023/02/11 05:22:33;;;;;;;60.42;27.63;;;6.40;96.60;;;;;;5013003;28;20129;-65
2023/02/11 05:24:59;;;;;;;61.10;28.02;;;6.30;97.10;;;;;;5014090;28;20144;-65
2023/02/11 05:27:25;;;;;;;59.92;29.63;;;6.40;97.20;;;;;;5012470;28;20040;-65
2023/02/11 05:29:50;;;;;;;66.80;32.58;;;6.40;97.20;;;;;;5009071;28;20037;-65
2023/02/11 05:32:16;;;;;;;64.47;29.67;;;6.40;97.10;;;;;;5010242;28;20045;-65
2023/02/11 05:34:42;;;;;;;61.35;27.70;;;6.40;97.70;;;;;;5013911;28;20052;-65
2023/02/11 05:37:08;;;;;;;65.10;29.90;;;6.40;97.60;;;;;;5007994;28;20030;-65
2023/02/11 05:39:33;;;;;;;55.75;25.85;;;6.40;97.70;;;;;;5010943;28;20789;-65
2023/02/11 05:41:59;;;;;;;63.45;28.55;;;6.30;98.10;;;;;;5015247;28;20037;-65
2023/02/11 05:44:25;;;;;;;75.38;31.13;;;6.30;98.20;;;;;;5012905;28;20459;-65
2023/02/11 05:46:50;;;;;;;67.00;28.95;;;6.30;98.30;;;;;;5006284;28;20029;-65
2023/02/11 05:49:18;;;;;;;77.88;30.65;;;6.20;98.80;;;;;;5007823;28;20160;-65
2023/02/11 05:51:44;;;;;;;63.33;28.15;;;6.10;99.20;;;;;;5008273;28;20065;-65
2023/02/11 05:54:10;;;;;;;66.88;29.95;;;6.10;99.20;;;;;;5006114;28;20494;-65
2023/02/11 05:56:35;;;;;;;71.47;31.35;;;6.20;99.20;;;;;;5008418;28;20048;-65
2023/02/11 05:59:01;;;;;;;64.78;28.20;;;6.20;99.20;;;;;;5008308;28;20044;-65
2023/02/11 06:01:27;;;;;;;68.57;30.63;;;6.30;99.20;;;;;;5013105;28;20061;-65
2023/02/11 06:03:53;;;;;;;67.30;29.65;;;6.30;99.00;;;;;;5004581;28;20037;-65
2023/02/11 06:06:19;;;;;;;66.95;29.00;;;6.40;99.30;;;;;;5005698;28;20500;-65
2023/02/11 06:08:45;;;;;;;62.08;28.75;;;6.40;99.50;;;;;;5008538;28;20132;-65
2023/02/11 06:11:13;;;;;;;59.15;27.60;;;6.50;99.20;;;;;;5006369;28;20903;-65
2023/02/11 06:13:38;;;;;;;66.55;28.77;;;6.40;99.40;;;;;;4991032;28;20088;-65
2023/02/11 06:16:04;;;;;;;58.58;26.92;;;6.50;99.30;;;;;;5007495;28;20034;-65
2023/02/11 06:18:32;;;;;;;58.55;28.33;;;6.50;99.20;;;;;;5007903;28;20889;-65
2023/02/11 06:20:58;;;;;;;67.03;28.73;;;6.60;98.90;;;;;;5010082;28;20040;-65
2023/02/11 06:23:24;;;;;;;66.22;29.23;;;6.70;98.80;;;;;;5007715;28;20038;-65
2023/02/11 06:25:51;;;;;;;65.85;28.65;;;6.70;98.70;;;;;;5010902;28;20132;-65
2023/02/11 06:28:17;;;;;;;58.47;26.83;;;6.70;99.00;;;;;;5014752;28;20144;-65
2023/02/11 06:30:43;;;;;;;61.20;27.60;;;6.60;99.10;;;;;;5012997;28;20151;-65
2023/02/11 06:33:09;;;;;;;57.92;26.70;;;6.60;98.80;;;;;;5012522;28;20555;-65
2023/02/11 06:35:37;;;;;;;60.97;27.23;;;6.70;98.90;;;;;;5011959;28;20030;-65
2023/02/11 06:38:03;;;;;;;66.72;29.20;;;6.70;98.90;;;;;;5010920;28;20664;-65
2023/02/11 06:40:29;;;;;;;72.47;31.30;;;6.80;98.90;;;;;;5011236;28;20122;-65
2023/02/11 06:42:55;;;;;;;69.50;28.42;;;6.70;99.50;;;;;;5012734;28;20041;-65
2023/02/11 06:45:21;;;;;;;69.50;28.30;;;6.60;99.40;;;;;;5006168;28;20791;-65
2023/02/11 06:47:46;;;;;;;65.85;28.45;;;6.60;99.40;;;;;;5012966;28;20516;-65
2023/02/11 06:50:13;;;;;;;60.45;28.27;;;6.70;99.30;;;;;;5010357;28;20119;-65
2023/02/11 06:52:39;;;;;;;64.18;29.38;;;6.60;99.60;;;;;;5009704;28;20114;-65
2023/02/11 06:55:05;;;;;;;70.40;31.17;;;6.60;99.80;;;;;;5014748;28;20021;-65
2023/02/11 06:57:31;;;;;;;72.20;30.30;;;6.40;99.90;;;;;;4992432;28;20034;-66
2023/02/11 06:59:57;;;;;;;73.95;30.88;;;6.30;99.90;;;;;;5012962;28;20049;-65
2023/02/11 07:02:23;;;;;;;73.03;29.75;;;6.30;99.90;;;;;;5010513;28;20037;-65
2023/02/11 07:04:49;;;;;;;69.38;31.95;;;6.30;99.90;;;;;;5012480;28;20031;-65
2023/02/11 07:07:14;;;;;;;73.03;30.90;;;6.30;99.90;;;;;;5015734;28;20120;-65
2023/02/11 07:09:40;;;;;;;71.22;29.13;;;6.30;99.90;;;;;;5009754;28;20030;-65
2023/02/11 07:12:08;;;;;;;63.17;28.13;;;6.50;99.90;;;;;;5012895;28;20083;-65
2023/02/11 07:14:34;;;;;;;68.20;31.00;;;6.60;99.90;;;;;;5011256;28;20037;-65
2023/02/11 07:17:00;;;;;;;71.25;29.15;;;6.50;99.90;;;;;;5016156;28;20036;-65
2023/02/11 07:19:25;;;;;;;73.03;31.30;;;6.60;99.90;;;;;;5013373;28;20517;-65
2023/02/11 07:21:51;;;;;;;63.78;29.05;;;6.60;99.90;;;;;;5011534;28;21058;-65
2023/02/11 07:24:18;;;;;;;66.63;28.25;;;6.70;99.90;;;;;;5008092;28;20057;-65
2023/02/11 07:26:44;;;;;;;61.72;28.05;;;6.70;99.90;;;;;;5009177;28;20580;-65
2023/02/11 07:29:09;;;;;;;70.30;28.13;;;6.70;99.90;;;;;;5012466;28;20060;-65
2023/02/11 07:31:35;;;;;;;61.60;29.40;;;6.70;99.90;;;;;;5010207;28;20094;-65
2023/02/11 07:34:02;;;;;;;74.55;31.33;;;6.70;99.90;;;;;;5023030;28;20731;-65
2023/02/11 07:36:29;;;;;;;77.45;31.17;;;6.60;99.90;;;;;;5018784;28;20030;-66
2023/02/11 07:38:55;;;;;;;69.13;30.30;;;6.70;99.90;;;;;;5017118;28;20039;-66
2023/02/11 07:41:22;;;;;;;66.45;29.90;;;6.80;99.90;;;;;;5012361;28;20029;-65
2023/02/11 07:43:48;;;;;;;66.90;29.70;;;6.70;99.90;;;;;;5006510;28;20081;-65
2023/02/11 07:46:18;;;;;;;64.88;29.23;;;6.50;99.90;;;;;;5010526;28;20037;-65
2023/02/11 07:48:43;;;;;;;66.18;29.88;;;6.60;99.90;;;;;;5012273;28;20577;-65
2023/02/11 07:51:13;;;;;;;67.25;28.80;;;6.60;99.90;;;;;;5012863;28;20117;-65
2023/02/11 07:53:39;;;;;;;61.15;27.10;;;6.80;99.90;;;;;;5011611;28;20033;-65
2023/02/11 07:56:06;;;;;;;63.85;28.63;;;7.00;99.90;;;;;;5007415;28;20029;-65
2023/02/11 07:58:32;;;;;;;68.55;29.08;;;7.10;99.90;;;;;;5008301;28;20046;-65
2023/02/11 08:01:03;;;;;;;73.85;29.05;;;7.20;99.90;;;;;;5008734;28;20038;-65
2023/02/11 08:03:29;;;;;;;62.72;27.80;;;7.20;99.70;;;;;;5007439;28;20038;-65
2023/02/11 08:05:55;;;;;;;63.38;27.95;;;7.20;99.80;;;;;;5006687;28;20100;-65
2023/02/11 08:08:20;;;;;;;63.10;28.17;;;7.20;99.90;;;;;;5013743;28;20770;-65
2023/02/11 08:10:46;;;;;;;59.30;25.73;;;7.20;99.80;;;;;;5015075;28;20132;-65
2023/02/11 08:13:12;;;;;;;60.35;26.70;;;7.10;99.80;;;;;;5011435;28;20123;-65
2023/02/11 08:15:38;;;;;;;59.63;26.15;;;7.10;99.90;;;;;;5008530;28;20140;-65
2023/02/11 08:18:03;;;;;;;64.40;27.23;;;7.20;99.90;;;;;;5010178;28;20089;-65
2023/02/11 08:20:29;;;;;;;54.25;24.92;;;7.20;99.90;;;;;;5011748;28;20128;-66
2023/02/11 08:22:55;;;;;;;63.40;25.60;;;7.30;99.80;;;;;;5004275;28;20038;-64
2023/02/11 08:25:21;;;;;;;53.28;24.58;;;7.30;99.80;;;;;;5004151;28;20035;-66
2023/02/11 08:27:46;;;;;;;62.42;26.30;;;7.40;99.90;;;;;;5008940;28;20051;-65
2023/02/11 08:30:13;;;;;;;55.75;25.63;;;7.30;99.90;;;;;;5011966;28;20034;-65
2023/02/11 08:32:38;;;;;;;58.55;26.38;;;7.40;99.90;;;;;;4994281;28;20030;-66
2023/02/11 08:35:06;;;;;;;52.80;25.42;;;7.40;99.90;;;;;;5009039;28;20844;-66
2023/02/11 08:37:33;;;;;;;60.05;26.13;;;7.50;99.90;;;;;;5008719;28;20572;-65
2023/02/11 08:39:58;;;;;;;50.72;24.65;;;7.60;99.80;;;;;;5011814;28;20484;-66
2023/02/11 08:42:24;;;;;;;56.17;24.17;;;7.60;99.70;;;;;;5012936;28;20036;-65
2023/02/11 08:44:50;;;;;;;51.40;24.08;;;7.70;99.70;;;;;;5013214;28;20132;-66
2023/02/11 08:47:16;;;;;;;55.45;24.50;;;7.80;99.50;;;;;;5006800;28;20037;-66
2023/02/11 08:49:42;;;;;;;50.10;23.17;;;7.80;99.40;;;;;;5005274;28;20033;-66
2023/02/11 08:52:08;;;;;;;50.63;23.55;;;7.80;99.50;;;;;;5010902;28;20049;-67
2023/02/11 08:54:33;;;;;;;53.63;23.05;;;7.80;99.50;;;;;;5009263;28;20026;-67
2023/02/11 08:57:00;;;;;;;51.05;23.17;;;7.80;99.50;;;;;;5010010;28;20131;-66
2023/02/11 08:59:27;;;;;;;50.67;23.40;;;7.90;99.20;;;;;;5012383;28;20037;-66
2023/02/11 09:01:52;;;;;;;57.65;24.38;;;7.80;99.50;;;;;;5008166;28;20040;-66
2023/02/11 09:04:18;;;;;;;50.58;23.95;;;7.80;99.50;;;;;;5007817;28;20048;-66
2023/02/11 09:06:44;;;;;;;47.67;23.95;;;7.80;99.70;;;;;;5008914;28;20036;-66
2023/02/11 09:09:12;;;;;;;50.85;25.23;;;7.70;99.90;;;;;;5006987;28;20045;-66
2023/02/11 09:11:40;;;;;;;61.17;24.95;;;7.80;99.90;;;;;;5006257;28;20504;-66
2023/02/11 09:14:06;;;;;;;48.92;24.67;;;7.90;99.70;;;;;;4993716;28;20033;-66
2023/02/11 09:16:34;;;;;;;52.85;24.85;;;7.90;99.60;;;;;;5013591;28;20057;-66
2023/02/11 09:19:02;;;;;;;54.92;25.38;;;8.00;99.60;;;;;;5011188;28;20038;-66
2023/02/11 09:21:29;;;;;;;53.05;24.98;;;7.90;99.60;;;;;;5010314;28;20046;-69
2023/02/11 09:23:55;;;;;;;56.65;25.73;;;7.90;99.70;;;;;;5009159;28;20029;-65
2023/02/11 09:26:25;;;;;;;49.63;22.83;;;7.90;99.60;;;;;;5009740;28;20037;-65
2023/02/11 09:28:51;;;;;;;49.70;27.30;;;8.00;99.30;;;;;;5006780;28;20056;-65
2023/02/11 09:31:20;;;;;;;50.72;24.33;;;8.00;99.40;;;;;;5006886;28;20549;-67
2023/02/11 09:33:48;;;;;;;51.78;23.73;;;8.00;99.50;;;;;;5007798;28;20104;-66
2023/02/11 09:36:18;;;;;;;53.63;25.88;;;8.00;99.60;;;;;;5005577;28;20099;-66
2023/02/11 09:38:45;;;;;;;44.72;22.98;;;8.10;99.60;;;;;;5010795;28;20493;-66
2023/02/11 09:41:43;;;;;;;49.70;22.08;;;8.10;99.40;;;;;;5014524;28;20038;-66
2023/02/11 09:44:38;;;;;;;47.90;22.80;;;8.20;99.30;;;;;;5010230;28;20093;-66
2023/02/11 09:47:23;;;;;;;45.40;22.35;;;8.20;99.10;;;;;;4987968;28;20096;-66
2023/02/11 09:49:53;;;;;;;54.40;25.45;;;8.30;99.10;;;;;;5005050;28;20029;-66
2023/02/11 09:52:56;;;;;;;55.13;24.95;;;8.40;98.80;;;;;;5003592;28;20814;-66
2023/02/11 09:55:40;;;;;;;51.63;22.52;;;8.40;98.70;;;;;;4999084;28;20404;-66
2023/02/11 09:58:32;;;;;;;45.78;22.48;;;8.40;98.60;;;;;;5007253;28;20034;-66
2023/02/11 10:01:12;;;;;;;51.25;23.80;;;8.40;98.70;;;;;;5010300;28;20034;-67
2023/02/11 10:03:59;;;;;;;52.70;23.17;;;8.40;98.90;;;;;;5016317;28;20073;-66
2023/02/11 10:06:45;;;;;;;48.50;21.67;;;8.40;98.70;;;;;;5011399;28;20049;-66
2023/02/11 10:09:33;;;;;;;48.70;22.13;;;8.40;98.80;;;;;;5010381;28;20136;-66
2023/02/11 10:12:19;;;;;;;42.80;21.00;;;8.50;98.80;;;;;;5016677;28;20560;-66
2023/02/11 10:15:07;;;;;;;47.63;22.08;;;8.60;98.60;;;;;;5016497;28;20029;-66
2023/02/11 10:18:08;;;;;;;40.08;19.90;;;8.70;98.40;;;;;;5016053;28;20820;-66
2023/02/11 10:20:46;;;;;;;48.00;21.00;;;8.70;98.00;;;;;;4966911;28;20068;-66
2023/02/11 10:23:14;;;;;;;45.65;20.45;;;8.80;98.00;;;;;;5014809;28;20093;-66
2023/02/11 10:25:45;;;;;;;50.47;21.90;;;8.80;98.10;;;;;;5013599;28;20165;-67
2023/02/11 10:28:17;;;;;;;44.50;21.30;;;8.80;98.20;;;;;;5014749;28;20124;-67
2023/02/11 10:30:55;;;;;;;38.20;19.90;;;8.80;98.40;;;;;;5008746;28;20818;-66
2023/02/11 10:33:35;;;;;;;40.83;20.30;;;8.80;98.70;;;;;;5012045;28;20026;-66
2023/02/11 10:36:02;;;;;;;47.15;22.42;;;8.80;98.70;;;;;;5010078;28;20124;-66
2023/02/11 10:38:28;;;;;;;45.10;22.55;;;8.70;99.00;;;;;;5010932;28;20042;-66
2023/02/11 10:40:53;;;;;;;46.28;21.17;;;8.60;99.40;;;;;;5021197;28;20038;-66
2023/02/11 10:43:25;;;;;;;44.22;21.70;;;8.50;99.50;;;;;;5009120;28;20168;-66
2023/02/11 10:45:53;;;;;;;45.70;20.70;;;8.50;99.70;;;;;;5014550;28;20378;-62
2023/02/11 10:48:36;;;;;;;42.92;21.10;;;8.50;99.90;;;;;;5013144;28;20048;-65
2023/02/11 10:51:10;;;;;;;39.53;21.20;;;8.40;99.90;;;;;;5010717;28;20104;-66
2023/02/11 10:53:36;;;;;;;38.70;18.83;;;8.40;99.90;;;;;;5009908;28;20061;-66
2023/02/11 10:56:05;;;;;;;41.25;20.55;;;8.50;99.90;;;;;;5011911;28;20030;-66
2023/02/11 10:58:44;;;;;;;38.78;20.13;;;8.40;99.90;;;;;;5014325;28;20056;-67
2023/02/11 11:01:11;;;;;;;42.08;21.17;;;8.50;99.90;;;;;;5010461;28;20757;-67
2023/02/11 11:03:44;;;;;;;43.90;20.30;;;8.50;99.90;;;;;;5013481;28;20594;-66
2023/02/11 11:06:10;;;;;;;45.63;20.90;;;8.50;99.90;;;;;;5011637;28;20132;-66
2023/02/11 11:08:41;;;;;;;41.03;20.48;;;8.50;99.90;;;;;;5015064;28;20111;-66
2023/02/11 11:11:10;;;;;;;37.88;18.17;;;8.60;99.90;;;;;;5011230;28;20041;-67
2023/02/11 11:13:52;;;;;;;40.03;20.52;;;8.60;99.90;;;;;;5007571;28;20099;-61
2023/02/11 11:16:29;;;;;;;37.45;18.67;;;8.60;99.90;;;;;;5005864;28;20026;-66
2023/02/11 11:19:07;;;;;;;37.00;19.90;;;8.60;99.90;;;;;;5006937;28;20053;-67
2023/02/11 11:21:42;;;;;;;41.60;19.67;;;8.70;99.90;;;;;;5010991;28;20045;-66
2023/02/11 11:24:21;;;;;;;42.10;21.50;;;8.70;99.90;;;;;;5007877;28;20037;-66
2023/02/11 11:26:53;;;;;;;42.00;19.67;;;8.80;99.90;;;;;;5008873;28;21206;-67
2023/02/11 11:29:36;;;;;;;38.88;18.90;;;8.70;99.90;;;;;;5012613;28;20037;-66
2023/02/11 11:32:10;;;;;;;39.25;19.73;;;8.70;99.90;;;;;;5006389;28;20145;-66
2023/02/11 11:34:47;;;;;;;41.30;20.35;;;8.70;99.90;;;;;;5011769;28;20048;-66
2023/02/11 11:37:21;;;;;;;34.30;18.00;;;8.70;99.90;;;;;;5012949;28;20039;-66
2023/02/11 11:40:00;;;;;;;36.03;17.20;;;8.70;99.90;;;;;;5007243;28;20037;-66
2023/02/11 11:42:31;;;;;;;32.13;17.50;;;8.80;99.90;;;;;;5001527;28;20610;-67
2023/02/11 11:45:03;;;;;;;32.00;17.45;;;8.80;99.90;;;;;;5010011;28;20404;-66
2023/02/11 11:47:52;;;;;;;33.35;16.95;;;8.80;99.90;;;;;;5011486;28;20072;-66
2023/02/11 11:50:58;;;;;;;37.13;17.15;;;8.80;99.90;;;;;;5013561;28;20029;-67
2023/02/11 11:53:43;;;;;;;29.67;15.75;;;8.90;99.90;;;;;;4894885;29;20031;-66
2023/02/11 11:56:21;;;;;;;37.63;15.95;;;8.90;99.90;;;;;;4999602;28;20479;-66
2023/02/11 11:58:49;;;;;;;30.48;15.63;;;8.90;99.90;;;;;;5009172;28;20457;-66
2023/02/11 12:01:42;;;;;;;31.08;16.15;;;8.90;99.90;;;;;;5012137;28;20050;-66
2023/02/11 12:04:34;;;;;;;28.42;15.13;;;8.90;99.90;;;;;;5010025;28;20033;-67
2023/02/11 12:07:28;;;;;;;30.08;15.45;;;8.90;99.90;;;;;;5006834;28;20147;-66
2023/02/11 12:10:21;;;;;;;29.42;14.75;;;8.90;99.90;;;;;;5010206;28;20042;-66
2023/02/11 12:13:21;;;;;;;23.55;13.57;;;8.90;99.90;;;;;;4992138;28;20037;-66
2023/02/11 12:16:06;;;;;;;26.80;15.00;;;8.90;99.90;;;;;;4994156;28;20049;-66
2023/02/11 12:19:04;;;;;;;26.63;14.43;;;9.00;99.90;;;;;;5009648;28;20390;-69
2023/02/11 12:21:35;;;;;;;29.35;14.10;;;8.90;99.90;;;;;;4965261;28;20073;-69
2023/02/11 12:24:01;;;;;;;25.48;13.63;;;8.90;99.90;;;;;;5003962;28;20042;-68
2023/02/11 12:26:59;;;;;;;26.33;13.00;;;8.90;99.90;;;;;;5007884;28;20292;-69
2023/02/11 12:29:43;;;;;;;26.23;12.55;;;9.00;99.90;;;;;;5007086;28;20160;-69
2023/02/11 12:32:27;;;;;;;23.40;12.80;;;9.00;99.90;;;;;;5010064;28;20037;-69
2023/02/11 12:35:35;;;;;;;27.00;12.13;;;9.00;99.90;;;;;;5002617;28;20033;-69
2023/02/11 12:38:18;;;;;;;24.63;12.80;;;9.00;99.90;;;;;;4976853;28;20471;-69
2023/02/11 12:43:14;;;;;;;23.70;12.70;;;9.10;99.90;;;;;;5008648;28;20077;-69
2023/02/11 12:44:14;;;;;;;25.77;12.30;;;9.10;99.90;;;;;;5005270;28;20497;-65
2023/02/11 12:46:52;;;;;;;24.30;14.10;;;9.20;99.90;;;;;;5005968;28;20092;-66
2023/02/11 12:49:52;;;;;;;23.98;13.57;;;9.20;99.90;;;;;;5009508;28;20025;-66
2023/02/11 12:52:39;;;;;;;24.98;12.48;;;9.30;99.90;;;;;;4989028;28;20549;-66
2023/02/11 12:55:15;;;;;;;;;;;9.30;99.90;;;;;;5009031;28;20044;-66
2023/02/11 12:57:45;;;;;;;21.58;11.40;;;9.40;99.70;;;;;;4998561;28;19913;-66
2023/02/11 13:00:28;;;;;;;20.70;11.60;;;9.40;99.60;;;;;;5014168;28;20029;-66
2023/02/11 13:03:16;;;;;;;21.50;11.38;;;9.50;99.50;;;;;;5014205;28;20124;-66
2023/02/11 13:05:50;;;;;;;54.95;26.42;;;9.40;99.60;;;;;;5009161;28;20045;-66
2023/02/11 13:08:22;;;;;;;28.27;13.23;;;9.50;99.40;;;;;;5007357;28;20132;-67
2023/02/11 13:10:54;;;;;;;32.22;17.10;;;9.50;99.40;;;;;;5006825;28;20064;-66
2023/02/11 13:13:29;;;;;;;30.17;17.00;;;9.50;99.40;;;;;;5010501;28;20033;-66
2023/02/11 13:16:12;;;;;;;25.85;14.27;;;9.50;99.40;;;;;;5008254;28;20061;-66